Strona główna
METAR-TAF:

METAR-TAF

Lotnisko :

Carmi Municipal Airport

Carmi, Illinois, Stany Zjednoczone

Szerokość geograficzna: 38-05-22N, Długość geograficzna: 088-07-23W, wysokość: 118 m

Aktualna obserwacja pogody

Raport powstał 12 minut temu, godzina 18:55 UTC
Wiatr 3 kt od północ
Temperatura -6°C
Wilgotność 73%
Ciśnienie 1036 hPa
Widzialność: 16.1 km
Zachmurzenie całkowite na wysokości 1700 ft

METAR: KCUL 201855Z AUTO 36003KT 10SM OVC017 M06/M10 A3060 RMK AO2

czas: 13:07 (19:07 UTC)


TAF: brakujący

Obserwacja i prognoza pogody dla ponad 4000 lotnisk (raport METAR i TAF).

Dostępne stacje oznaczono żółtymi i czerwonymi punktami na mapie.

Najedź kursorem aby zobaczyć nazwę stacji.

Kliknij aby zobaczyć obserwacje i prognozy pogody.

Aby zmienić mapę: kliknij na zielony przycisk z czarnym krzyżykiem, aby powiększyć; na zielony przycisk z myślnikiem, aby pomniejszyć; na zielone strzałki, aby przejść do map sąsiednich.


METAR-TAF: